createdAt,value
2018-04-16T00:00:04.817Z,18
2018-04-16T00:15:04.933Z,18
2018-04-16T00:30:04.720Z,17.8
2018-04-16T00:45:05.148Z,17.7
2018-04-16T01:00:05.252Z,17.6
2018-04-16T01:15:04.645Z,17.7
2018-04-16T01:30:04.953Z,17.5
2018-04-16T01:45:04.732Z,17.4
2018-04-16T02:00:04.692Z,17.2
2018-04-16T02:15:05.379Z,17.1
2018-04-16T02:30:04.558Z,17
2018-04-16T02:45:04.667Z,16.9
2018-04-16T03:00:04.450Z,16.9
2018-04-16T03:15:04.930Z,16.8
2018-04-16T03:30:05.225Z,16.8
2018-04-16T03:45:04.721Z,16.7
2018-04-16T04:00:05.422Z,16.7
2018-04-16T04:15:04.277Z,16.7
2018-04-16T04:30:04.396Z,16.6
2018-04-16T04:45:05.112Z,16.5
2018-04-16T05:00:04.860Z,16.5
2018-04-16T05:15:04.943Z,16.6
2018-04-16T05:30:05.167Z,16.6
2018-04-16T05:45:04.517Z,16.6
2018-04-16T06:00:04.455Z,16.7
2018-04-16T06:15:04.929Z,16.8
2018-04-16T06:30:04.572Z,16.9
2018-04-16T06:45:05.512Z,17.1
2018-04-16T07:00:04.904Z,17.1
2018-04-16T07:15:04.898Z,17.4
2018-04-16T07:30:04.733Z,17.4
2018-04-16T07:45:04.669Z,17.7
2018-04-16T08:00:05.120Z,17.9
2018-04-16T08:15:05.131Z,18.1
2018-04-16T08:30:04.837Z,20.8
2018-04-16T08:45:04.322Z,19.3
2018-04-16T09:00:04.703Z,25.4
2018-04-16T09:15:05.177Z,31.2
2018-04-16T09:30:04.783Z,22.9
2018-04-16T09:45:04.788Z,20.8
2018-04-16T10:00:04.701Z,20.4
2018-04-16T10:15:04.681Z,21.5
2018-04-16T10:30:04.306Z,21.1
2018-04-16T10:45:05.214Z,22.3
2018-04-16T11:00:04.696Z,23
2018-04-16T11:15:05.073Z,21.8
2018-04-16T11:30:04.759Z,22.5
2018-04-16T11:45:04.692Z,21.5
2018-04-16T12:00:05.169Z,21.5
2018-04-16T12:15:05.327Z,21.7
2018-04-16T12:30:04.977Z,21.4
2018-04-16T12:45:04.575Z,22
2018-04-16T13:00:04.998Z,21.7
2018-04-16T13:15:04.718Z,22.1
2018-04-16T13:30:04.484Z,22.4
2018-04-16T13:45:04.556Z,22.1
2018-04-16T14:00:05.227Z,20.2
2018-04-16T14:15:05.214Z,20.1
2018-04-16T14:30:04.433Z,19.8
2018-04-16T14:45:04.452Z,20.3
2018-04-16T15:00:04.706Z,20.9
2018-04-16T15:15:05.173Z,20.9
2018-04-16T15:30:04.336Z,20.3
2018-04-16T15:45:04.910Z,20.2
2018-04-16T16:00:04.952Z,19.9
2018-04-16T16:15:04.648Z,19.7
2018-04-16T16:30:04.540Z,19.4
2018-04-16T16:45:04.569Z,19.4
2018-04-16T17:00:05.042Z,19.3
2018-04-16T17:15:04.476Z,19.2
2018-04-16T17:30:04.815Z,19.2
2018-04-16T17:45:05.221Z,18.9
2018-04-16T18:00:04.739Z,18.9
2018-04-16T18:15:04.796Z,18.6
2018-04-16T18:30:04.684Z,18.4
2018-04-16T18:45:04.669Z,18.1
2018-04-16T19:15:04.865Z,17.4
2018-04-16T19:30:04.693Z,17.2
2018-04-16T19:45:05.045Z,16.8
2018-04-16T20:00:05.155Z,16.7
2018-04-16T20:15:05.878Z,16.5
2018-04-16T20:30:05.078Z,16.1
2018-04-16T20:45:05.433Z,15.9
2018-04-16T21:00:04.925Z,15.8
2018-04-16T21:15:05.033Z,15.7
2018-04-16T21:30:04.290Z,15.7
2018-04-16T21:45:04.487Z,15.7
2018-04-16T22:00:04.596Z,15.8
2018-04-16T22:15:04.682Z,15.8
2018-04-16T22:30:04.372Z,15.7
2018-04-16T22:45:04.595Z,15.6
2018-04-16T23:00:05.644Z,15.7
2018-04-16T23:15:04.755Z,15.8
2018-04-16T23:30:04.461Z,15.7
2018-04-16T23:45:05.256Z,15.7
